sensor_id;sensor_type;location;lat;lon;timestamp;P1;durP1;ratioP1;P2;durP2;ratioP2
9968;SDS011;5025;48.890;9.278;2023-07-31T00:00:26;2.03;;;1.80;;
9968;SDS011;5025;48.890;9.278;2023-07-31T00:02:51;1.87;;;1.67;;
9968;SDS011;5025;48.890;9.278;2023-07-31T00:05:17;2.40;;;1.93;;
9968;SDS011;5025;48.890;9.278;2023-07-31T00:07:42;2.10;;;1.87;;
9968;SDS011;5025;48.890;9.278;2023-07-31T00:10:08;1.67;;;1.57;;
9968;SDS011;5025;48.890;9.278;2023-07-31T00:12:33;1.83;;;1.73;;
9968;SDS011;5025;48.890;9.278;2023-07-31T00:14:58;2.00;;;1.90;;
9968;SDS011;5025;48.890;9.278;2023-07-31T00:17:24;1.80;;;1.70;;
9968;SDS011;5025;48.890;9.278;2023-07-31T00:19:49;1.70;;;1.60;;
9968;SDS011;5025;48.890;9.278;2023-07-31T00:22:15;1.90;;;1.80;;
9968;SDS011;5025;48.890;9.278;2023-07-31T00:24:41;1.93;;;1.83;;
9968;SDS011;5025;48.890;9.278;2023-07-31T00:27:06;2.97;;;1.80;;
9968;SDS011;5025;48.890;9.278;2023-07-31T00:29:31;1.93;;;1.77;;
9968;SDS011;5025;48.890;9.278;2023-07-31T00:31:56;1.80;;;1.70;;
9968;SDS011;5025;48.890;9.278;2023-07-31T00:34:22;1.87;;;1.63;;
9968;SDS011;5025;48.890;9.278;2023-07-31T00:36:47;1.97;;;1.63;;
9968;SDS011;5025;48.890;9.278;2023-07-31T00:39:12;1.80;;;1.70;;
9968;SDS011;5025;48.890;9.278;2023-07-31T00:41:37;1.70;;;1.60;;
9968;SDS011;5025;48.890;9.278;2023-07-31T00:44:03;1.90;;;1.80;;
9968;SDS011;5025;48.890;9.278;2023-07-31T00:46:28;1.83;;;1.70;;
9968;SDS011;5025;48.890;9.278;2023-07-31T00:48:53;1.90;;;1.80;;
9968;SDS011;5025;48.890;9.278;2023-07-31T00:51:19;1.90;;;1.70;;
9968;SDS011;5025;48.890;9.278;2023-07-31T00:53:44;2.37;;;1.80;;
9968;SDS011;5025;48.890;9.278;2023-07-31T00:56:10;2.27;;;1.80;;
9968;SDS011;5025;48.890;9.278;2023-07-31T00:58:36;1.97;;;1.83;;
9968;SDS011;5025;48.890;9.278;2023-07-31T01:01:01;1.90;;;1.80;;
9968;SDS011;5025;48.890;9.278;2023-07-31T01:03:27;1.80;;;1.70;;
9968;SDS011;5025;48.890;9.278;2023-07-31T01:06:36;1.90;;;1.80;;
9968;SDS011;5025;48.890;9.278;2023-07-31T01:08:47;2.70;;;1.70;;
9968;SDS011;5025;48.890;9.278;2023-07-31T01:11:31;1.53;;;1.50;;
9968;SDS011;5025;48.890;9.278;2023-07-31T01:13:59;1.90;;;1.80;;
9968;SDS011;5025;48.890;9.278;2023-07-31T01:16:27;1.90;;;1.80;;
9968;SDS011;5025;48.890;9.278;2023-07-31T01:18:53;1.90;;;1.80;;
9968;SDS011;5025;48.890;9.278;2023-07-31T01:21:21;2.83;;;1.60;;
9968;SDS011;5025;48.890;9.278;2023-07-31T01:26:47;1.90;;;1.80;;
9968;SDS011;5025;48.890;9.278;2023-07-31T01:29:23;1.97;;;1.80;;
9968;SDS011;5025;48.890;9.278;2023-07-31T01:31:57;2.10;;;1.90;;
9968;SDS011;5025;48.890;9.278;2023-07-31T01:34:27;1.97;;;1.83;;
9968;SDS011;5025;48.890;9.278;2023-07-31T01:36:54;1.90;;;1.80;;
9968;SDS011;5025;48.890;9.278;2023-07-31T01:39:21;1.57;;;1.47;;
9968;SDS011;5025;48.890;9.278;2023-07-31T01:41:46;1.70;;;1.60;;
9968;SDS011;5025;48.890;9.278;2023-07-31T01:44:12;1.70;;;1.60;;
9968;SDS011;5025;48.890;9.278;2023-07-31T01:46:37;1.70;;;1.60;;
9968;SDS011;5025;48.890;9.278;2023-07-31T01:49:02;1.90;;;1.80;;
9968;SDS011;5025;48.890;9.278;2023-07-31T01:51:27;2.50;;;1.70;;
9968;SDS011;5025;48.890;9.278;2023-07-31T01:53:53;1.83;;;1.60;;
9968;SDS011;5025;48.890;9.278;2023-07-31T01:56:18;1.93;;;1.70;;
9968;SDS011;5025;48.890;9.278;2023-07-31T01:58:43;1.57;;;1.50;;
9968;SDS011;5025;48.890;9.278;2023-07-31T02:01:08;1.57;;;1.53;;
9968;SDS011;5025;48.890;9.278;2023-07-31T02:03:34;1.87;;;1.77;;
9968;SDS011;5025;48.890;9.278;2023-07-31T02:05:59;1.70;;;1.60;;
9968;SDS011;5025;48.890;9.278;2023-07-31T02:08:24;1.60;;;1.50;;
9968;SDS011;5025;48.890;9.278;2023-07-31T02:10:50;2.47;;;1.90;;
9968;SDS011;5025;48.890;9.278;2023-07-31T02:13:15;1.70;;;1.60;;
9968;SDS011;5025;48.890;9.278;2023-07-31T02:15:40;1.73;;;1.50;;
9968;SDS011;5025;48.890;9.278;2023-07-31T02:18:05;1.97;;;1.80;;
9968;SDS011;5025;48.890;9.278;2023-07-31T02:20:33;1.80;;;1.70;;
9968;SDS011;5025;48.890;9.278;2023-07-31T02:23:00;2.30;;;1.90;;
9968;SDS011;5025;48.890;9.278;2023-07-31T02:25:25;1.90;;;1.80;;
9968;SDS011;5025;48.890;9.278;2023-07-31T02:27:50;3.10;;;1.90;;
9968;SDS011;5025;48.890;9.278;2023-07-31T02:30:15;1.60;;;1.50;;
9968;SDS011;5025;48.890;9.278;2023-07-31T02:32:41;1.70;;;1.60;;
9968;SDS011;5025;48.890;9.278;2023-07-31T02:35:06;1.63;;;1.53;;
9968;SDS011;5025;48.890;9.278;2023-07-31T02:37:33;1.70;;;1.60;;
9968;SDS011;5025;48.890;9.278;2023-07-31T02:39:59;2.10;;;1.90;;
9968;SDS011;5025;48.890;9.278;2023-07-31T02:42:24;1.73;;;1.70;;
9968;SDS011;5025;48.890;9.278;2023-07-31T02:44:49;1.40;;;1.37;;
9968;SDS011;5025;48.890;9.278;2023-07-31T02:47:16;1.40;;;1.40;;
9968;SDS011;5025;48.890;9.278;2023-07-31T02:49:42;1.70;;;1.60;;
9968;SDS011;5025;48.890;9.278;2023-07-31T02:52:07;1.70;;;1.60;;
9968;SDS011;5025;48.890;9.278;2023-07-31T02:54:32;1.93;;;1.60;;
9968;SDS011;5025;48.890;9.278;2023-07-31T02:56:57;1.90;;;1.70;;
9968;SDS011;5025;48.890;9.278;2023-07-31T02:59:23;2.00;;;1.70;;
9968;SDS011;5025;48.890;9.278;2023-07-31T03:01:48;2.10;;;1.70;;
9968;SDS011;5025;48.890;9.278;2023-07-31T03:04:13;1.73;;;1.50;;
9968;SDS011;5025;48.890;9.278;2023-07-31T03:06:38;1.80;;;1.70;;
9968;SDS011;5025;48.890;9.278;2023-07-31T03:09:04;1.57;;;1.43;;
9968;SDS011;5025;48.890;9.278;2023-07-31T03:11:29;1.43;;;1.40;;
9968;SDS011;5025;48.890;9.278;2023-07-31T03:13:54;1.70;;;1.60;;
9968;SDS011;5025;48.890;9.278;2023-07-31T03:16:19;2.10;;;2.00;;
9968;SDS011;5025;48.890;9.278;2023-07-31T03:18:45;1.70;;;1.60;;
9968;SDS011;5025;48.890;9.278;2023-07-31T03:21:10;1.60;;;1.50;;
9968;SDS011;5025;48.890;9.278;2023-07-31T03:23:35;2.07;;;1.70;;
9968;SDS011;5025;48.890;9.278;2023-07-31T03:26:01;2.03;;;1.83;;
9968;SDS011;5025;48.890;9.278;2023-07-31T03:28:28;1.70;;;1.60;;
9968;SDS011;5025;48.890;9.278;2023-07-31T03:30:54;1.73;;;1.63;;
9968;SDS011;5025;48.890;9.278;2023-07-31T03:33:19;2.00;;;1.60;;
9968;SDS011;5025;48.890;9.278;2023-07-31T03:35:45;2.00;;;1.80;;
9968;SDS011;5025;48.890;9.278;2023-07-31T03:38:10;1.70;;;1.57;;
9968;SDS011;5025;48.890;9.278;2023-07-31T03:40:35;1.70;;;1.60;;
9968;SDS011;5025;48.890;9.278;2023-07-31T03:43:01;1.57;;;1.47;;
9968;SDS011;5025;48.890;9.278;2023-07-31T03:45:26;1.80;;;1.70;;
9968;SDS011;5025;48.890;9.278;2023-07-31T03:47:51;1.60;;;1.50;;
9968;SDS011;5025;48.890;9.278;2023-07-31T03:50:17;1.60;;;1.50;;
9968;SDS011;5025;48.890;9.278;2023-07-31T03:52:42;1.73;;;1.63;;
9968;SDS011;5025;48.890;9.278;2023-07-31T03:55:07;1.70;;;1.60;;
9968;SDS011;5025;48.890;9.278;2023-07-31T03:57:33;1.80;;;1.70;;
9968;SDS011;5025;48.890;9.278;2023-07-31T03:59:58;1.80;;;1.70;;
9968;SDS011;5025;48.890;9.278;2023-07-31T04:02:23;2.27;;;2.07;;
9968;SDS011;5025;48.890;9.278;2023-07-31T04:04:49;1.60;;;1.50;;
9968;SDS011;5025;48.890;9.278;2023-07-31T04:07:14;2.27;;;1.80;;
9968;SDS011;5025;48.890;9.278;2023-07-31T04:09:39;1.63;;;1.53;;
9968;SDS011;5025;48.890;9.278;2023-07-31T04:12:04;1.70;;;1.60;;
9968;SDS011;5025;48.890;9.278;2023-07-31T04:14:30;2.00;;;1.70;;
9968;SDS011;5025;48.890;9.278;2023-07-31T04:16:55;1.80;;;1.70;;
9968;SDS011;5025;48.890;9.278;2023-07-31T04:19:20;1.70;;;1.60;;
9968;SDS011;5025;48.890;9.278;2023-07-31T04:21:46;1.83;;;1.73;;
9968;SDS011;5025;48.890;9.278;2023-07-31T04:24:11;1.90;;;1.80;;
9968;SDS011;5025;48.890;9.278;2023-07-31T04:26:36;2.33;;;1.90;;
9968;SDS011;5025;48.890;9.278;2023-07-31T04:29:01;1.80;;;1.70;;
9968;SDS011;5025;48.890;9.278;2023-07-31T04:31:27;1.80;;;1.70;;
9968;SDS011;5025;48.890;9.278;2023-07-31T04:33:52;2.00;;;1.90;;
9968;SDS011;5025;48.890;9.278;2023-07-31T04:36:17;2.03;;;1.80;;
9968;SDS011;5025;48.890;9.278;2023-07-31T04:38:42;2.80;;;1.90;;
9968;SDS011;5025;48.890;9.278;2023-07-31T04:41:08;2.03;;;1.93;;
9968;SDS011;5025;48.890;9.278;2023-07-31T04:43:33;2.10;;;2.00;;
9968;SDS011;5025;48.890;9.278;2023-07-31T04:45:58;2.97;;;2.13;;
9968;SDS011;5025;48.890;9.278;2023-07-31T04:48:24;2.27;;;1.90;;
9968;SDS011;5025;48.890;9.278;2023-07-31T04:50:49;2.10;;;1.90;;
9968;SDS011;5025;48.890;9.278;2023-07-31T04:53:14;2.10;;;1.90;;
9968;SDS011;5025;48.890;9.278;2023-07-31T04:55:39;2.10;;;1.70;;
9968;SDS011;5025;48.890;9.278;2023-07-31T04:58:05;2.07;;;1.97;;
9968;SDS011;5025;48.890;9.278;2023-07-31T05:00:30;2.00;;;1.90;;
9968;SDS011;5025;48.890;9.278;2023-07-31T05:02:55;1.93;;;1.83;;
9968;SDS011;5025;48.890;9.278;2023-07-31T05:05:20;2.03;;;1.83;;
9968;SDS011;5025;48.890;9.278;2023-07-31T05:07:46;2.23;;;2.07;;
9968;SDS011;5025;48.890;9.278;2023-07-31T05:10:11;1.80;;;1.70;;
9968;SDS011;5025;48.890;9.278;2023-07-31T05:12:36;2.20;;;2.00;;
9968;SDS011;5025;48.890;9.278;2023-07-31T05:15:02;2.37;;;1.80;;
9968;SDS011;5025;48.890;9.278;2023-07-31T05:17:27;2.20;;;2.00;;
9968;SDS011;5025;48.890;9.278;2023-07-31T05:19:52;2.03;;;1.83;;
9968;SDS011;5025;48.890;9.278;2023-07-31T05:22:17;2.10;;;1.90;;
9968;SDS011;5025;48.890;9.278;2023-07-31T05:24:43;1.90;;;1.80;;
9968;SDS011;5025;48.890;9.278;2023-07-31T05:27:08;2.20;;;2.00;;
9968;SDS011;5025;48.890;9.278;2023-07-31T05:29:34;2.80;;;2.00;;
9968;SDS011;5025;48.890;9.278;2023-07-31T05:32:00;2.03;;;1.80;;
9968;SDS011;5025;48.890;9.278;2023-07-31T05:34:25;2.47;;;2.10;;
9968;SDS011;5025;48.890;9.278;2023-07-31T05:36:50;1.93;;;1.80;;
9968;SDS011;5025;48.890;9.278;2023-07-31T05:39:15;3.20;;;1.93;;
9968;SDS011;5025;48.890;9.278;2023-07-31T05:41:41;2.73;;;1.90;;
9968;SDS011;5025;48.890;9.278;2023-07-31T05:44:06;2.83;;;1.93;;
9968;SDS011;5025;48.890;9.278;2023-07-31T05:46:31;2.47;;;2.00;;
9968;SDS011;5025;48.890;9.278;2023-07-31T05:48:57;2.20;;;2.07;;
9968;SDS011;5025;48.890;9.278;2023-07-31T05:51:22;2.33;;;1.90;;
9968;SDS011;5025;48.890;9.278;2023-07-31T05:53:47;2.20;;;2.00;;
9968;SDS011;5025;48.890;9.278;2023-07-31T05:56:12;1.90;;;1.80;;
9968;SDS011;5025;48.890;9.278;2023-07-31T05:58:38;2.70;;;2.10;;
9968;SDS011;5025;48.890;9.278;2023-07-31T06:01:03;2.33;;;2.00;;
9968;SDS011;5025;48.890;9.278;2023-07-31T06:03:28;2.93;;;2.23;;
9968;SDS011;5025;48.890;9.278;2023-07-31T06:05:53;2.47;;;2.00;;
9968;SDS011;5025;48.890;9.278;2023-07-31T06:08:19;2.20;;;1.80;;
9968;SDS011;5025;48.890;9.278;2023-07-31T06:10:44;2.30;;;2.10;;
9968;SDS011;5025;48.890;9.278;2023-07-31T06:13:09;2.00;;;1.90;;
9968;SDS011;5025;48.890;9.278;2023-07-31T06:15:34;3.33;;;2.00;;
9968;SDS011;5025;48.890;9.278;2023-07-31T06:18:00;2.97;;;2.10;;
9968;SDS011;5025;48.890;9.278;2023-07-31T06:20:27;2.67;;;2.10;;
9968;SDS011;5025;48.890;9.278;2023-07-31T06:22:52;2.17;;;1.80;;
9968;SDS011;5025;48.890;9.278;2023-07-31T06:25:17;3.20;;;2.10;;
9968;SDS011;5025;48.890;9.278;2023-07-31T06:27:43;2.37;;;1.80;;
9968;SDS011;5025;48.890;9.278;2023-07-31T06:30:08;2.17;;;1.87;;
9968;SDS011;5025;48.890;9.278;2023-07-31T06:32:34;2.10;;;2.00;;
9968;SDS011;5025;48.890;9.278;2023-07-31T06:34:59;1.93;;;1.80;;
9968;SDS011;5025;48.890;9.278;2023-07-31T06:37:24;3.70;;;2.17;;
9968;SDS011;5025;48.890;9.278;2023-07-31T06:39:49;2.23;;;2.00;;
9968;SDS011;5025;48.890;9.278;2023-07-31T06:42:15;2.80;;;2.00;;
9968;SDS011;5025;48.890;9.278;2023-07-31T06:44:40;2.23;;;1.90;;
9968;SDS011;5025;48.890;9.278;2023-07-31T06:47:05;2.93;;;1.97;;
9968;SDS011;5025;48.890;9.278;2023-07-31T06:49:30;2.53;;;1.90;;
9968;SDS011;5025;48.890;9.278;2023-07-31T06:51:56;3.57;;;2.00;;
9968;SDS011;5025;48.890;9.278;2023-07-31T06:54:21;3.43;;;2.00;;
9968;SDS011;5025;48.890;9.278;2023-07-31T06:56:46;2.03;;;1.93;;
9968;SDS011;5025;48.890;9.278;2023-07-31T06:59:12;3.87;;;2.43;;
9968;SDS011;5025;48.890;9.278;2023-07-31T07:01:37;3.00;;;2.10;;
9968;SDS011;5025;48.890;9.278;2023-07-31T07:04:02;4.70;;;2.20;;
9968;SDS011;5025;48.890;9.278;2023-07-31T07:06:28;3.03;;;2.20;;
9968;SDS011;5025;48.890;9.278;2023-07-31T07:08:53;3.20;;;2.30;;
9968;SDS011;5025;48.890;9.278;2023-07-31T07:11:18;2.83;;;2.30;;
9968;SDS011;5025;48.890;9.278;2023-07-31T07:13:43;2.60;;;2.30;;
9968;SDS011;5025;48.890;9.278;2023-07-31T07:16:09;3.97;;;2.30;;
9968;SDS011;5025;48.890;9.278;2023-07-31T07:18:35;5.13;;;2.40;;
9968;SDS011;5025;48.890;9.278;2023-07-31T07:21:00;2.07;;;1.93;;
9968;SDS011;5025;48.890;9.278;2023-07-31T07:23:27;2.40;;;2.20;;
9968;SDS011;5025;48.890;9.278;2023-07-31T07:25:52;2.37;;;2.17;;
9968;SDS011;5025;48.890;9.278;2023-07-31T07:28:17;2.53;;;2.00;;
9968;SDS011;5025;48.890;9.278;2023-07-31T07:30:43;2.57;;;2.10;;
9968;SDS011;5025;48.890;9.278;2023-07-31T07:33:08;3.27;;;2.50;;
9968;SDS011;5025;48.890;9.278;2023-07-31T07:35:33;5.03;;;2.40;;
9968;SDS011;5025;48.890;9.278;2023-07-31T07:37:59;2.97;;;2.10;;
9968;SDS011;5025;48.890;9.278;2023-07-31T07:40:25;2.67;;;2.30;;
9968;SDS011;5025;48.890;9.278;2023-07-31T07:42:51;5.10;;;2.40;;
9968;SDS011;5025;48.890;9.278;2023-07-31T07:45:16;3.53;;;2.03;;
9968;SDS011;5025;48.890;9.278;2023-07-31T07:47:41;5.40;;;2.67;;
9968;SDS011;5025;48.890;9.278;2023-07-31T07:50:07;3.30;;;2.20;;
9968;SDS011;5025;48.890;9.278;2023-07-31T07:52:33;2.40;;;2.20;;
9968;SDS011;5025;48.890;9.278;2023-07-31T07:54:58;2.77;;;2.17;;
9968;SDS011;5025;48.890;9.278;2023-07-31T07:57:25;2.40;;;2.20;;
9968;SDS011;5025;48.890;9.278;2023-07-31T07:59:50;2.43;;;2.23;;
9968;SDS011;5025;48.890;9.278;2023-07-31T08:02:15;3.53;;;2.30;;
9968;SDS011;5025;48.890;9.278;2023-07-31T08:04:40;3.70;;;2.30;;
9968;SDS011;5025;48.890;9.278;2023-07-31T08:07:06;2.27;;;2.10;;
9968;SDS011;5025;48.890;9.278;2023-07-31T08:09:31;3.87;;;2.30;;
9968;SDS011;5025;48.890;9.278;2023-07-31T08:11:56;3.30;;;2.20;;
9968;SDS011;5025;48.890;9.278;2023-07-31T08:14:26;4.03;;;2.40;;
9968;SDS011;5025;48.890;9.278;2023-07-31T08:16:52;2.43;;;2.23;;
9968;SDS011;5025;48.890;9.278;2023-07-31T08:19:17;3.30;;;2.50;;
9968;SDS011;5025;48.890;9.278;2023-07-31T08:21:42;3.43;;;2.20;;
9968;SDS011;5025;48.890;9.278;2023-07-31T08:24:07;3.03;;;2.20;;
9968;SDS011;5025;48.890;9.278;2023-07-31T08:26:33;3.63;;;2.10;;
9968;SDS011;5025;48.890;9.278;2023-07-31T08:28:58;3.80;;;2.37;;
9968;SDS011;5025;48.890;9.278;2023-07-31T08:31:24;3.60;;;2.40;;
9968;SDS011;5025;48.890;9.278;2023-07-31T08:33:49;2.20;;;2.00;;
9968;SDS011;5025;48.890;9.278;2023-07-31T08:36:14;3.23;;;2.50;;
9968;SDS011;5025;48.890;9.278;2023-07-31T08:38:39;2.93;;;2.43;;
9968;SDS011;5025;48.890;9.278;2023-07-31T08:41:05;3.67;;;2.30;;
9968;SDS011;5025;48.890;9.278;2023-07-31T08:43:30;5.17;;;2.60;;
9968;SDS011;5025;48.890;9.278;2023-07-31T08:45:57;4.37;;;2.40;;
9968;SDS011;5025;48.890;9.278;2023-07-31T08:48:23;2.50;;;2.20;;
9968;SDS011;5025;48.890;9.278;2023-07-31T08:50:48;3.27;;;2.20;;
9968;SDS011;5025;48.890;9.278;2023-07-31T08:53:14;3.10;;;2.50;;
9968;SDS011;5025;48.890;9.278;2023-07-31T08:55:41;2.47;;;2.27;;
9968;SDS011;5025;48.890;9.278;2023-07-31T08:58:07;3.50;;;2.50;;
9968;SDS011;5025;48.890;9.278;2023-07-31T09:00:33;2.33;;;2.10;;
9968;SDS011;5025;48.890;9.278;2023-07-31T09:02:59;3.07;;;2.27;;
9968;SDS011;5025;48.890;9.278;2023-07-31T09:05:29;2.77;;;2.37;;
9968;SDS011;5025;48.890;9.278;2023-07-31T09:07:55;3.57;;;2.53;;
9968;SDS011;5025;48.890;9.278;2023-07-31T09:10:22;3.20;;;2.60;;
9968;SDS011;5025;48.890;9.278;2023-07-31T09:12:48;3.43;;;2.70;;
9968;SDS011;5025;48.890;9.278;2023-07-31T09:15:14;5.20;;;2.40;;
9968;SDS011;5025;48.890;9.278;2023-07-31T09:17:39;3.77;;;2.33;;
9968;SDS011;5025;48.890;9.278;2023-07-31T09:22:40;3.90;;;2.57;;
9968;SDS011;5025;48.890;9.278;2023-07-31T09:25:16;4.50;;;2.80;;
9968;SDS011;5025;48.890;9.278;2023-07-31T09:27:46;2.97;;;2.30;;
9968;SDS011;5025;48.890;9.278;2023-07-31T09:30:19;4.18;;;2.60;;
9968;SDS011;5025;48.890;9.278;2023-07-31T09:32:46;3.20;;;2.50;;
9968;SDS011;5025;48.890;9.278;2023-07-31T09:37:57;4.53;;;2.87;;
9968;SDS011;5025;48.890;9.278;2023-07-31T09:40:27;2.80;;;2.20;;
9968;SDS011;5025;48.890;9.278;2023-07-31T09:43:00;3.07;;;2.43;;
9968;SDS011;5025;48.890;9.278;2023-07-31T09:45:26;2.63;;;2.23;;
9968;SDS011;5025;48.890;9.278;2023-07-31T09:47:53;3.73;;;2.53;;
9968;SDS011;5025;48.890;9.278;2023-07-31T09:50:22;2.53;;;2.30;;
9968;SDS011;5025;48.890;9.278;2023-07-31T09:52:50;3.13;;;2.37;;
9968;SDS011;5025;48.890;9.278;2023-07-31T09:55:16;2.60;;;2.30;;
9968;SDS011;5025;48.890;9.278;2023-07-31T09:57:44;3.17;;;2.30;;
9968;SDS011;5025;48.890;9.278;2023-07-31T10:00:11;2.47;;;2.30;;
9968;SDS011;5025;48.890;9.278;2023-07-31T10:02:38;4.23;;;2.67;;
9968;SDS011;5025;48.890;9.278;2023-07-31T10:05:04;3.37;;;2.50;;
9968;SDS011;5025;48.890;9.278;2023-07-31T10:07:31;4.30;;;2.60;;
9968;SDS011;5025;48.890;9.278;2023-07-31T10:10:02;2.63;;;2.30;;
9968;SDS011;5025;48.890;9.278;2023-07-31T10:12:29;3.10;;;2.63;;
9968;SDS011;5025;48.890;9.278;2023-07-31T10:14:55;3.73;;;2.33;;
9968;SDS011;5025;48.890;9.278;2023-07-31T10:17:21;2.73;;;2.30;;
9968;SDS011;5025;48.890;9.278;2023-07-31T10:19:48;3.20;;;2.50;;
9968;SDS011;5025;48.890;9.278;2023-07-31T10:22:14;2.50;;;2.30;;
9968;SDS011;5025;48.890;9.278;2023-07-31T10:24:42;3.53;;;2.43;;
9968;SDS011;5025;48.890;9.278;2023-07-31T10:27:08;4.13;;;2.63;;
9968;SDS011;5025;48.890;9.278;2023-07-31T10:29:34;4.67;;;2.70;;
9968;SDS011;5025;48.890;9.278;2023-07-31T10:32:00;4.20;;;2.63;;
9968;SDS011;5025;48.890;9.278;2023-07-31T10:34:26;3.37;;;2.47;;
9968;SDS011;5025;48.890;9.278;2023-07-31T10:37:19;2.47;;;2.20;;
9968;SDS011;5025;48.890;9.278;2023-07-31T10:42:20;4.30;;;2.70;;
9968;SDS011;5025;48.890;9.278;2023-07-31T10:44:52;3.00;;;2.70;;
9968;SDS011;5025;48.890;9.278;2023-07-31T10:47:21;4.13;;;2.67;;
9968;SDS011;5025;48.890;9.278;2023-07-31T10:49:46;2.93;;;2.47;;
9968;SDS011;5025;48.890;9.278;2023-07-31T10:52:12;2.63;;;2.43;;
9968;SDS011;5025;48.890;9.278;2023-07-31T10:54:38;3.07;;;2.33;;
9968;SDS011;5025;48.890;9.278;2023-07-31T10:57:18;4.00;;;2.63;;
9968;SDS011;5025;48.890;9.278;2023-07-31T10:59:44;3.33;;;2.83;;
9968;SDS011;5025;48.890;9.278;2023-07-31T11:02:09;3.73;;;2.83;;
9968;SDS011;5025;48.890;9.278;2023-07-31T11:05:05;2.67;;;2.27;;
9968;SDS011;5025;48.890;9.278;2023-07-31T11:07:47;3.43;;;2.60;;
9968;SDS011;5025;48.890;9.278;2023-07-31T11:10:18;2.80;;;2.50;;
9968;SDS011;5025;48.890;9.278;2023-07-31T11:12:45;3.43;;;2.50;;
9968;SDS011;5025;48.890;9.278;2023-07-31T11:15:11;3.10;;;2.80;;
9968;SDS011;5025;48.890;9.278;2023-07-31T11:17:40;4.07;;;3.00;;
9968;SDS011;5025;48.890;9.278;2023-07-31T11:20:06;4.07;;;3.07;;
9968;SDS011;5025;48.890;9.278;2023-07-31T11:22:34;4.83;;;2.97;;
9968;SDS011;5025;48.890;9.278;2023-07-31T11:25:01;4.13;;;3.13;;
9968;SDS011;5025;48.890;9.278;2023-07-31T11:27:28;3.03;;;2.70;;
9968;SDS011;5025;48.890;9.278;2023-07-31T11:29:59;3.30;;;2.90;;
9968;SDS011;5025;48.890;9.278;2023-07-31T11:32:26;3.53;;;3.00;;
9968;SDS011;5025;48.890;9.278;2023-07-31T11:34:55;3.00;;;2.80;;
9968;SDS011;5025;48.890;9.278;2023-07-31T11:37:20;4.00;;;2.60;;
9968;SDS011;5025;48.890;9.278;2023-07-31T11:39:58;4.13;;;2.83;;
9968;SDS011;5025;48.890;9.278;2023-07-31T11:42:27;3.50;;;2.67;;
9968;SDS011;5025;48.890;9.278;2023-07-31T11:44:52;3.37;;;2.87;;
9968;SDS011;5025;48.890;9.278;2023-07-31T11:47:17;3.10;;;2.80;;
9968;SDS011;5025;48.890;9.278;2023-07-31T11:49:43;3.63;;;3.07;;
9968;SDS011;5025;48.890;9.278;2023-07-31T11:52:09;2.80;;;2.60;;
9968;SDS011;5025;48.890;9.278;2023-07-31T11:54:35;3.07;;;2.60;;
9968;SDS011;5025;48.890;9.278;2023-07-31T11:57:01;4.07;;;3.07;;
9968;SDS011;5025;48.890;9.278;2023-07-31T11:59:28;3.13;;;2.60;;
9968;SDS011;5025;48.890;9.278;2023-07-31T12:01:53;3.80;;;3.40;;
9968;SDS011;5025;48.890;9.278;2023-07-31T12:04:19;3.27;;;2.97;;
9968;SDS011;5025;48.890;9.278;2023-07-31T12:06:46;4.43;;;3.13;;
9968;SDS011;5025;48.890;9.278;2023-07-31T12:09:12;4.00;;;2.90;;
9968;SDS011;5025;48.890;9.278;2023-07-31T12:11:46;3.07;;;2.83;;
9968;SDS011;5025;48.890;9.278;2023-07-31T12:14:22;3.43;;;2.90;;
9968;SDS011;5025;48.890;9.278;2023-07-31T12:16:52;4.17;;;2.80;;
9968;SDS011;5025;48.890;9.278;2023-07-31T12:19:19;3.93;;;3.00;;
9968;SDS011;5025;48.890;9.278;2023-07-31T12:21:44;3.30;;;2.80;;
9968;SDS011;5025;48.890;9.278;2023-07-31T12:24:09;3.67;;;3.07;;
9968;SDS011;5025;48.890;9.278;2023-07-31T12:26:35;3.60;;;2.80;;
9968;SDS011;5025;48.890;9.278;2023-07-31T12:29:00;2.87;;;2.57;;
9968;SDS011;5025;48.890;9.278;2023-07-31T12:31:27;4.90;;;3.00;;
9968;SDS011;5025;48.890;9.278;2023-07-31T12:33:53;3.37;;;2.87;;
9968;SDS011;5025;48.890;9.278;2023-07-31T12:36:21;5.10;;;2.70;;
9968;SDS011;5025;48.890;9.278;2023-07-31T12:38:47;3.57;;;2.90;;
9968;SDS011;5025;48.890;9.278;2023-07-31T12:41:14;3.73;;;3.10;;
9968;SDS011;5025;48.890;9.278;2023-07-31T12:43:40;4.07;;;2.67;;
9968;SDS011;5025;48.890;9.278;2023-07-31T12:46:07;4.30;;;3.00;;
9968;SDS011;5025;48.890;9.278;2023-07-31T12:48:33;4.00;;;3.03;;
9968;SDS011;5025;48.890;9.278;2023-07-31T12:50:58;3.43;;;3.13;;
9968;SDS011;5025;48.890;9.278;2023-07-31T12:53:24;5.53;;;3.03;;
9968;SDS011;5025;48.890;9.278;2023-07-31T12:55:49;2.93;;;2.43;;
9968;SDS011;5025;48.890;9.278;2023-07-31T12:58:15;3.60;;;2.70;;
9968;SDS011;5025;48.890;9.278;2023-07-31T13:00:40;3.23;;;2.93;;
9968;SDS011;5025;48.890;9.278;2023-07-31T13:03:05;3.33;;;3.00;;
9968;SDS011;5025;48.890;9.278;2023-07-31T13:05:30;3.10;;;2.80;;
9968;SDS011;5025;48.890;9.278;2023-07-31T13:07:56;3.07;;;2.77;;
9968;SDS011;5025;48.890;9.278;2023-07-31T13:10:22;3.57;;;2.97;;
9968;SDS011;5025;48.890;9.278;2023-07-31T13:12:48;4.73;;;2.90;;
9968;SDS011;5025;48.890;9.278;2023-07-31T13:15:13;3.97;;;3.00;;
9968;SDS011;5025;48.890;9.278;2023-07-31T13:17:39;3.30;;;2.77;;
9968;SDS011;5025;48.890;9.278;2023-07-31T13:20:04;3.10;;;2.80;;
9968;SDS011;5025;48.890;9.278;2023-07-31T13:22:30;3.27;;;2.97;;
9968;SDS011;5025;48.890;9.278;2023-07-31T13:24:55;4.80;;;2.93;;
9968;SDS011;5025;48.890;9.278;2023-07-31T13:27:21;4.87;;;2.73;;
9968;SDS011;5025;48.890;9.278;2023-07-31T13:29:50;3.20;;;2.73;;
9968;SDS011;5025;48.890;9.278;2023-07-31T13:32:16;2.80;;;2.60;;
9968;SDS011;5025;48.890;9.278;2023-07-31T13:34:43;3.57;;;2.87;;
9968;SDS011;5025;48.890;9.278;2023-07-31T13:37:08;5.07;;;3.00;;
9968;SDS011;5025;48.890;9.278;2023-07-31T13:39:34;2.90;;;2.70;;
9968;SDS011;5025;48.890;9.278;2023-07-31T13:41:59;2.87;;;2.57;;
9968;SDS011;5025;48.890;9.278;2023-07-31T13:44:25;4.90;;;2.70;;
9968;SDS011;5025;48.890;9.278;2023-07-31T13:46:51;3.57;;;2.80;;
9968;SDS011;5025;48.890;9.278;2023-07-31T13:49:16;3.10;;;2.80;;
9968;SDS011;5025;48.890;9.278;2023-07-31T13:51:41;3.50;;;2.50;;
9968;SDS011;5025;48.890;9.278;2023-07-31T13:54:07;3.30;;;2.73;;
9968;SDS011;5025;48.890;9.278;2023-07-31T13:56:32;3.10;;;2.80;;
9968;SDS011;5025;48.890;9.278;2023-07-31T13:58:58;2.97;;;2.73;;
9968;SDS011;5025;48.890;9.278;2023-07-31T14:01:23;4.53;;;2.60;;
9968;SDS011;5025;48.890;9.278;2023-07-31T14:03:49;2.90;;;2.70;;
9968;SDS011;5025;48.890;9.278;2023-07-31T14:06:14;3.00;;;2.67;;
9968;SDS011;5025;48.890;9.278;2023-07-31T14:08:39;4.10;;;2.90;;
9968;SDS011;5025;48.890;9.278;2023-07-31T14:11:04;3.07;;;2.80;;
9968;SDS011;5025;48.890;9.278;2023-07-31T14:13:30;3.23;;;2.80;;
9968;SDS011;5025;48.890;9.278;2023-07-31T14:15:55;3.00;;;2.70;;
9968;SDS011;5025;48.890;9.278;2023-07-31T14:18:21;3.20;;;2.50;;
9968;SDS011;5025;48.890;9.278;2023-07-31T14:20:47;3.80;;;3.00;;
9968;SDS011;5025;48.890;9.278;2023-07-31T14:23:12;3.10;;;2.80;;
9968;SDS011;5025;48.890;9.278;2023-07-31T14:25:37;3.10;;;2.80;;
9968;SDS011;5025;48.890;9.278;2023-07-31T14:28:03;3.20;;;2.80;;
9968;SDS011;5025;48.890;9.278;2023-07-31T14:30:28;3.37;;;2.47;;
9968;SDS011;5025;48.890;9.278;2023-07-31T14:32:53;3.50;;;2.80;;
9968;SDS011;5025;48.890;9.278;2023-07-31T14:35:18;2.73;;;2.50;;
9968;SDS011;5025;48.890;9.278;2023-07-31T14:37:44;3.10;;;2.80;;
9968;SDS011;5025;48.890;9.278;2023-07-31T14:40:10;2.73;;;2.50;;
9968;SDS011;5025;48.890;9.278;2023-07-31T14:42:37;3.00;;;2.80;;
9968;SDS011;5025;48.890;9.278;2023-07-31T14:45:03;3.53;;;2.57;;
9968;SDS011;5025;48.890;9.278;2023-07-31T14:47:29;2.97;;;2.50;;
9968;SDS011;5025;48.890;9.278;2023-07-31T14:49:56;3.03;;;2.70;;
9968;SDS011;5025;48.890;9.278;2023-07-31T14:52:21;3.63;;;2.77;;
9968;SDS011;5025;48.890;9.278;2023-07-31T14:54:46;2.77;;;2.57;;
9968;SDS011;5025;48.890;9.278;2023-07-31T14:57:12;3.17;;;2.60;;
9968;SDS011;5025;48.890;9.278;2023-07-31T14:59:37;2.97;;;2.70;;
9968;SDS011;5025;48.890;9.278;2023-07-31T15:02:02;3.37;;;2.70;;
9968;SDS011;5025;48.890;9.278;2023-07-31T15:04:28;3.97;;;2.80;;
9968;SDS011;5025;48.890;9.278;2023-07-31T15:06:53;2.80;;;2.33;;
9968;SDS011;5025;48.890;9.278;2023-07-31T15:09:18;3.33;;;2.57;;
9968;SDS011;5025;48.890;9.278;2023-07-31T15:11:44;2.77;;;2.57;;
9968;SDS011;5025;48.890;9.278;2023-07-31T15:14:09;3.43;;;2.60;;
9968;SDS011;5025;48.890;9.278;2023-07-31T15:16:34;3.37;;;2.90;;
9968;SDS011;5025;48.890;9.278;2023-07-31T15:19:00;3.10;;;2.90;;